Kensington, Canada
Current Conditions -  °F | °C
As of 3:00 PM on Saturday 25 Oct 2014 (Local Time) from CYYG Reporting Station
Drizzle Drizzle  
Wind Chill:   Ceiling: 400
Heat Index:   Visibility: 3mi
Dew Point:   Wind: 10mph
Humidity: 100%   Direction: 340°NNW
Pressure: 29.45"   Gusts: NA
Location:  46.43°N, 63.65°W
Report Text: CYYG 251800Z 34009KT 310V010 3SM -DZ BR OVC004 09/09 A2945 RMK SF8 SLP975
Loading
Personal Weather Stations






























Interactive Weather Map
Tropical Storm Tracking
New forecast layout! Learn more

10-Day Weather Forecast

Advertisements
Track Severe Weather on mobile